Time;durP1;ratioP1;P1;durP2;ratioP2;P2;SDS_P1;SDS_P2;PMS_P1;PMS_P2;Temp;Humidity;BMP_temperature;BMP_pressure;BME280_temperature;BME280_humidity;BME280_pressure;Samples;Min_cycle;Max_cycle;Signal;HPM_P1;HPM_P2
2022/07/14 00:00:39;;;;;;;2.67;2.00;;;22.00;1.00;;;;;;7368831;19;20018;-73
2022/07/14 00:03:09;;;;;;;7.00;2.38;;;21.90;1.00;;;;;;7368623;19;20027;-73
2022/07/14 00:05:41;;;;;;;4.18;2.10;;;22.00;1.00;;;;;;7380420;19;20119;-74
2022/07/14 00:08:11;;;;;;;3.60;1.77;;;22.00;1.00;;;;;;7368865;19;20010;-74
2022/07/14 00:10:41;;;;;;;3.30;2.00;;;22.00;1.00;;;;;;7367034;19;20014;-74
2022/07/14 00:13:11;;;;;;;2.75;1.90;;;22.00;1.00;;;;;;7367590;19;20385;-74
2022/07/14 00:15:44;;;;;;;6.50;2.20;;;21.70;1.00;;;;;;7359971;19;20018;-74
2022/07/14 00:18:13;;;;;;;3.42;2.20;;;21.40;1.00;;;;;;7369068;19;20011;-74
2022/07/14 00:20:45;;;;;;;3.08;2.20;;;21.10;1.00;;;;;;7389674;19;20021;-74
2022/07/14 00:23:15;;;;;;;6.60;2.40;;;21.10;1.00;;;;;;7368770;19;20039;-72
2022/07/14 00:25:46;;;;;;;4.45;1.90;;;21.10;1.00;;;;;;7357349;19;20086;-73
2022/07/14 00:28:16;;;;;;;5.50;2.13;;;21.00;1.00;;;;;;7368085;19;20030;-73
2022/07/14 00:30:53;;;;;;;3.83;2.30;;;21.00;1.00;;;;;;7366207;19;20015;-74
2022/07/14 00:33:23;;;;;;;4.15;2.20;;;21.10;1.00;;;;;;7368464;19;20021;-73
2022/07/14 00:35:52;;;;;;;6.45;2.20;;;21.10;1.00;;;;;;7359926;19;20039;-74
2022/07/14 00:38:22;;;;;;;4.13;2.13;;;21.00;1.00;;;;;;7390036;19;20018;-73
2022/07/14 00:40:52;;;;;;;3.25;2.17;;;21.10;1.00;;;;;;7366744;19;20013;-73
2022/07/14 00:43:22;;;;;;;3.95;2.10;;;21.10;1.00;;;;;;7367681;19;20022;-73
2022/07/14 00:45:55;;;;;;;4.13;2.17;;;21.10;1.00;;;;;;7360360;19;20074;-75
2022/07/14 00:48:26;;;;;;;3.80;2.17;;;21.10;1.00;;;;;;7367573;19;20122;-73
2022/07/14 00:50:56;;;;;;;4.07;2.20;;;21.10;1.00;;;;;;7366436;19;20482;-73
2022/07/14 00:53:26;;;;;;;5.90;1.90;;;21.10;1.00;;;;;;7385453;19;20029;-74
2022/07/14 00:55:55;;;;;;;4.05;2.35;;;21.10;1.00;;;;;;7359345;19;20470;-74
2022/07/14 00:58:25;;;;;;;4.40;1.73;;;21.10;1.00;;;;;;7366561;19;20014;-73
2022/07/14 01:00:58;;;;;;;4.85;1.98;;;21.10;1.00;;;;;;7366532;19;20078;-73
2022/07/14 01:03:28;;;;;;;2.90;1.80;;;21.20;1.00;;;;;;7366936;19;20088;-72
2022/07/14 01:05:58;;;;;;;4.90;2.00;;;21.10;1.00;;;;;;7356677;19;20046;-72
2022/07/14 01:08:28;;;;;;;4.50;1.92;;;21.10;1.00;;;;;;7389662;19;20007;-73
2022/07/14 01:11:01;;;;;;;3.70;1.77;;;21.10;1.00;;;;;;7365896;19;20498;-74
2022/07/14 01:13:31;;;;;;;4.05;1.60;;;21.00;1.00;;;;;;7364125;19;20478;-73
2022/07/14 01:16:05;;;;;;;3.67;1.30;;;21.00;1.00;;;;;;7359808;19;20020;-72
2022/07/14 01:18:38;;;;;;;6.22;1.73;;;21.10;1.00;;;;;;7366237;19;20014;-73
2022/07/14 01:21:12;;;;;;;1.95;1.50;;;21.10;1.00;;;;;;7366056;19;20017;-73
2022/07/14 01:23:42;;;;;;;;;;;20.90;1.00;;;;;;7386823;19;20011;-73
2022/07/14 01:26:12;;;;;;;2.78;1.42;;;20.80;1.00;;;;;;7358783;19;19921;-72
2022/07/14 01:28:45;;;;;;;4.28;1.52;;;20.80;1.00;;;;;;7365269;19;20007;-72
2022/07/14 01:31:15;;;;;;;3.60;2.17;;;20.70;1.00;;;;;;7365414;19;20114;-73
2022/07/14 01:33:45;;;;;;;3.45;1.77;;;20.70;1.00;;;;;;7364042;19;20086;-73
2022/07/14 01:36:17;;;;;;;2.22;1.52;;;20.60;1.00;;;;;;7359724;19;20564;-74
2022/07/14 01:38:47;;;;;;;4.47;2.03;;;20.40;1.00;;;;;;7365754;19;20529;-73
2022/07/14 01:41:17;;;;;;;4.47;1.90;;;20.30;1.00;;;;;;7387317;19;20480;-73
2022/07/14 01:43:48;;;;;;;3.47;1.85;;;20.20;1.00;;;;;;7362606;19;20014;-74
2022/07/14 01:46:18;;;;;;;2.95;1.98;;;20.20;1.00;;;;;;7359946;19;20023;-74
2022/07/14 01:48:48;;;;;;;2.80;1.63;;;20.20;1.00;;;;;;7364674;19;20010;-74
2022/07/14 01:51:21;;;;;;;2.45;1.80;;;20.20;1.00;;;;;;7364359;19;20354;-74
2022/07/14 01:53:51;;;;;;;4.90;2.35;;;20.30;1.00;;;;;;7362928;19;20013;-74
2022/07/14 01:56:21;;;;;;;1.73;1.42;;;20.40;1.00;;;;;;7379948;19;20917;-73
2022/07/14 01:58:51;;;;;;;4.50;1.83;;;20.50;1.00;;;;;;7365322;19;20717;-74
2022/07/14 02:04:04;;;;;;;3.65;2.08;;;20.50;1.00;;;;;;7362918;19;20743;-73
2022/07/14 02:06:37;;;;;;;4.68;2.20;;;20.50;1.00;;;;;;7358692;19;20359;-73
2022/07/14 02:09:07;;;;;;;4.95;2.20;;;20.40;1.00;;;;;;7365693;19;20459;-73
2022/07/14 02:14:19;;;;;;;5.05;2.80;;;20.40;1.00;;;;;;7360691;19;20011;-74
2022/07/14 02:16:50;;;;;;;5.03;2.67;;;20.30;1.00;;;;;;7357726;19;20011;-73
2022/07/14 02:19:20;;;;;;;3.33;2.45;;;20.30;1.00;;;;;;7362352;19;20022;-75
2022/07/14 02:21:54;;;;;;;4.72;2.28;;;20.20;1.00;;;;;;7363727;19;20018;-74
2022/07/14 02:24:25;;;;;;;9.45;2.67;;;20.20;1.00;;;;;;7360453;19;20033;-75
2022/07/14 02:26:55;;;;;;;3.88;2.45;;;20.20;1.00;;;;;;7359509;19;20361;-74
2022/07/14 02:29:25;;;;;;;3.83;2.25;;;20.10;1.00;;;;;;7385861;19;20014;-75
2022/07/14 02:31:55;;;;;;;6.68;2.38;;;20.10;1.00;;;;;;7363748;19;20003;-74
2022/07/14 02:34:25;;;;;;;5.63;2.40;;;20.00;1.00;;;;;;7358835;19;20011;-74
2022/07/14 02:36:57;;;;;;;4.93;2.92;;;20.00;1.00;;;;;;7360550;19;20035;-76
2022/07/14 02:39:27;;;;;;;5.47;2.67;;;20.00;1.00;;;;;;7363519;19;20014;-75
2022/07/14 02:42:00;;;;;;;6.00;2.85;;;20.00;1.00;;;;;;7363637;19;20482;-73
2022/07/14 02:44:29;;;;;;;6.00;2.65;;;20.00;1.00;;;;;;7383450;19;20010;-74
2022/07/14 02:47:00;;;;;;;4.97;2.60;;;19.90;1.00;;;;;;7360800;19;20035;-74
2022/07/14 02:49:29;;;;;;;5.97;2.72;;;19.90;1.00;;;;;;7361290;19;20089;-72
2022/07/14 02:52:02;;;;;;;6.03;2.38;;;19.90;1.00;;;;;;7363348;19;20014;-73
2022/07/14 02:54:32;;;;;;;5.10;2.90;;;19.80;1.00;;;;;;7356946;19;20054;-73
2022/07/14 02:57:02;;;;;;;4.07;2.90;;;19.80;1.00;;;;;;7357676;19;20030;-72
2022/07/14 02:59:32;;;;;;;5.32;2.70;;;19.70;1.00;;;;;;7382316;19;20409;-73
2022/07/14 03:02:01;;;;;;;3.78;2.72;;;19.70;1.00;;;;;;7361749;19;20472;-74
2022/07/14 03:04:32;;;;;;;7.53;2.92;;;19.60;1.00;;;;;;7355425;19;20044;-74
2022/07/14 03:07:04;;;;;;;5.70;2.88;;;19.60;1.00;;;;;;7359800;19;20154;-72
2022/07/14 03:09:40;;;;;;;6.60;3.20;;;19.60;1.00;;;;;;7360720;19;20015;-73
2022/07/14 03:12:10;;;;;;;5.43;3.15;;;19.60;1.00;;;;;;7360905;19;20015;-73
2022/07/14 03:14:40;;;;;;;8.02;3.50;;;19.60;1.00;;;;;;7379297;19;20014;-73
2022/07/14 03:17:10;;;;;;;4.28;3.40;;;19.50;1.00;;;;;;7357722;19;20014;-73
2022/07/14 03:19:40;;;;;;;5.13;3.15;;;19.60;1.00;;;;;;7360555;19;20011;-72
2022/07/14 03:22:13;;;;;;;6.28;3.40;;;19.60;1.00;;;;;;7361531;19;20017;-73
2022/07/14 03:24:43;;;;;;;7.20;3.67;;;19.50;1.00;;;;;;7355713;19;20018;-73
2022/07/14 03:27:12;;;;;;;7.13;3.53;;;19.40;1.00;;;;;;7357640;19;20095;-74
2022/07/14 03:29:42;;;;;;;8.90;5.00;;;19.30;1.00;;;;;;7380333;19;20019;-73
2022/07/14 03:32:13;;;;;;;4.68;3.40;;;19.30;1.00;;;;;;7360558;19;20024;-73
2022/07/14 03:34:42;;;;;;;4.68;3.38;;;19.30;1.00;;;;;;7355366;19;20010;-73
2022/07/14 03:37:15;;;;;;;7.50;3.25;;;19.30;1.00;;;;;;7356768;19;20315;-73
2022/07/14 03:39:46;;;;;;;5.18;3.38;;;19.30;1.00;;;;;;7360512;19;20343;-73
2022/07/14 03:42:16;;;;;;;5.15;3.13;;;19.40;1.00;;;;;;7358775;19;20021;-74
2022/07/14 03:44:46;;;;;;;6.93;3.13;;;19.40;1.00;;;;;;7369099;19;20014;-73
2022/07/14 03:47:16;;;;;;;5.15;3.25;;;19.40;1.00;;;;;;7377995;19;20017;-73
2022/07/14 03:49:46;;;;;;;4.88;3.10;;;19.40;1.00;;;;;;7358474;19;20175;-74
2022/07/14 03:52:23;;;;;;;6.32;3.38;;;19.40;1.00;;;;;;7359589;19;20014;-73
2022/07/14 03:54:53;;;;;;;8.57;3.10;;;19.40;1.00;;;;;;7354911;19;20015;-73
2022/07/14 03:57:23;;;;;;;8.57;3.40;;;19.80;1.00;;;;;;7358791;19;20020;-73
2022/07/14 03:59:54;;;;;;;7.45;3.00;;;20.50;1.00;;;;;;7361267;19;20074;-73
2022/07/14 04:02:24;;;;;;;5.28;3.47;;;21.20;1.00;;;;;;7381956;19;20078;-71
2022/07/14 04:04:53;;;;;;;4.60;3.03;;;21.80;1.00;;;;;;7355340;19;20035;-72
2022/07/14 04:07:26;;;;;;;6.00;3.30;;;22.30;1.00;;;;;;7357419;19;20010;-72
2022/07/14 04:09:56;;;;;;;7.32;3.13;;;22.80;1.00;;;;;;7360876;19;20057;-73
2022/07/14 04:12:26;;;;;;;6.95;2.92;;;22.70;1.00;;;;;;7362115;19;20014;-73
2022/07/14 04:14:56;;;;;;;6.00;3.05;;;23.10;1.00;;;;;;7355784;19;20043;-73
2022/07/14 04:17:26;;;;;;;4.57;2.92;;;23.30;1.00;;;;;;7378330;19;20009;-73
2022/07/14 04:19:56;;;;;;;6.25;3.35;;;23.60;1.00;;;;;;7359743;19;20014;-73
2022/07/14 04:22:29;;;;;;;6.25;3.55;;;23.90;1.00;;;;;;7360765;19;20020;-73
2022/07/14 04:25:12;;;;;;;6.30;3.30;;;23.40;1.00;;;;;;7355014;19;20011;-73
2022/07/14 04:27:42;;;;;;;7.72;3.40;;;23.80;1.00;;;;;;7358345;19;20502;-73
2022/07/14 04:30:15;;;;;;;4.63;2.85;;;24.10;1.00;;;;;;7360820;19;20065;-73
2022/07/14 04:32:45;;;;;;;4.63;2.97;;;24.00;1.00;;;;;;7381485;19;20015;-73
2022/07/14 04:35:15;;;;;;;6.18;3.17;;;24.70;1.00;;;;;;7352667;19;20018;-73
2022/07/14 04:37:48;;;;;;;6.00;3.05;;;24.80;1.00;;;;;;7355965;19;20029;-73
2022/07/14 04:40:18;;;;;;;6.47;3.13;;;25.60;1.00;;;;;;7360159;19;20061;-74
2022/07/14 04:42:48;;;;;;;5.32;2.70;;;25.50;1.00;;;;;;7367133;19;20126;-73
2022/07/14 04:45:18;;;;;;;6.45;3.03;;;25.80;1.00;;;;;;7362720;19;20329;-73
2022/07/14 04:47:51;;;;;;;4.15;2.30;;;26.00;1.00;;;;;;7365799;19;20035;-74
2022/07/14 04:53:06;;;;;;;7.00;2.78;;;26.00;1.00;;;;;;7366337;19;20018;-74
2022/07/14 04:55:36;;;;;;;5.60;3.20;;;26.30;1.00;;;;;;7358219;19;20015;-73
2022/07/14 04:58:06;;;;;;;5.43;2.92;;;26.80;1.00;;;;;;7367449;19;20028;-73
2022/07/14 05:00:35;;;;;;;5.63;2.53;;;27.30;1.00;;;;;;7366150;19;20478;-72
2022/07/14 05:03:09;;;;;;;6.90;2.97;;;27.20;1.00;;;;;;7365926;19;20026;-73
2022/07/14 05:05:39;;;;;;;4.95;2.85;;;27.70;1.00;;;;;;7380297;19;20022;-73
2022/07/14 05:08:11;;;;;;;7.57;2.88;;;26.90;1.00;;;;;;7364965;19;20017;-74
2022/07/14 05:10:41;;;;;;;5.00;3.13;;;27.30;1.00;;;;;;7365641;19;20021;-73
2022/07/14 05:13:11;;;;;;;5.43;2.83;;;26.90;1.00;;;;;;7366736;19;20040;-72
2022/07/14 05:15:41;;;;;;;7.18;2.95;;;26.90;1.00;;;;;;7358245;19;20007;-73
2022/07/14 05:18:11;;;;;;;3.80;2.67;;;27.70;1.00;;;;;;7366794;19;20053;-74
2022/07/14 05:20:41;;;;;;;6.55;2.78;;;28.30;1.00;;;;;;7387045;19;20093;-74
2022/07/14 05:23:14;;;;;;;5.93;2.80;;;28.00;1.00;;;;;;7365901;19;20798;-74
2022/07/14 05:25:44;;;;;;;6.03;3.45;;;25.90;1.00;;;;;;7357129;19;20018;-74
2022/07/14 05:28:14;;;;;;;6.38;3.05;;;24.20;1.00;;;;;;7364527;19;20010;-74
2022/07/14 05:30:43;;;;;;;5.25;2.97;;;25.10;1.00;;;;;;7365300;19;20022;-74
2022/07/14 05:33:13;;;;;;;5.40;2.85;;;26.80;1.00;;;;;;7364013;19;20019;-74
2022/07/14 05:35:44;;;;;;;8.90;3.28;;;26.10;1.00;;;;;;7379000;19;20016;-74
2022/07/14 05:38:16;;;;;;;8.88;4.10;;;25.30;1.00;;;;;;7365580;19;20007;-74
2022/07/14 05:40:46;;;;;;;7.07;2.80;;;26.50;1.00;;;;;;7364201;19;20018;-73
2022/07/14 05:43:16;;;;;;;9.70;3.10;;;28.30;1.00;;;;;;7365538;19;20082;-73
2022/07/14 05:45:46;;;;;;;10.30;3.13;;;28.10;1.00;;;;;;7357011;19;20578;-73
2022/07/14 05:48:16;;;;;;;6.97;3.72;;;27.70;1.00;;;;;;7363699;19;20018;-73
2022/07/14 05:50:46;;;;;;;8.30;4.32;;;26.50;1.00;;;;;;7381460;19;20547;-73
2022/07/14 05:53:18;;;;;;;9.32;4.88;;;27.10;1.00;;;;;;7382972;19;20466;-74
2022/07/14 05:55:48;;;;;;;4.90;3.10;;;28.10;1.00;;;;;;7356106;19;20011;-74
2022/07/14 05:58:18;;;;;;;10.15;3.85;;;28.10;1.00;;;;;;7364602;19;20855;-73
2022/07/14 06:00:48;;;;;;;5.85;3.22;;;28.70;1.00;;;;;;7362985;19;20018;-73
2022/07/14 06:03:18;;;;;;;6.32;3.15;;;28.70;1.00;;;;;;7363904;19;20016;-74
2022/07/14 06:05:48;;;;;;;5.95;2.80;;;27.80;1.00;;;;;;7355498;19;20032;-72
2022/07/14 06:08:21;;;;;;;7.55;2.60;;;27.80;1.00;;;;;;7383820;19;20077;-73
2022/07/14 06:10:51;;;;;;;5.43;2.80;;;26.80;1.00;;;;;;7363919;19;20014;-74
2022/07/14 06:13:21;;;;;;;4.55;2.63;;;27.40;1.00;;;;;;7364944;19;20010;-74
2022/07/14 06:15:51;;;;;;;8.65;3.10;;;27.70;1.00;;;;;;7354949;19;20014;-73
2022/07/14 06:18:21;;;;;;;6.57;2.72;;;26.20;1.00;;;;;;7364163;19;20106;-72
2022/07/14 06:20:51;;;;;;;3.50;2.40;;;26.00;1.00;;;;;;7363816;19;20474;-74
2022/07/14 06:23:24;;;;;;;7.18;2.80;;;25.50;1.00;;;;;;7385853;19;20021;-74
2022/07/14 06:25:54;;;;;;;12.68;3.25;;;25.60;1.00;;;;;;7355312;19;20458;-74
2022/07/14 06:28:24;;;;;;;12.90;2.90;;;25.50;1.00;;;;;;7361627;19;20367;-73
2022/07/14 06:30:53;;;;;;;6.80;3.03;;;25.80;1.00;;;;;;7359319;19;20014;-73
2022/07/14 06:33:23;;;;;;;9.88;2.95;;;25.40;1.00;;;;;;7362944;19;20021;-73
2022/07/14 06:35:54;;;;;;;4.85;3.08;;;27.40;1.00;;;;;;7355910;19;20018;-74
2022/07/14 06:38:35;;;;;;;8.43;2.50;;;26.90;1.00;;;;;;7385142;19;20094;-74
2022/07/14 06:41:04;;;;;;;3.67;2.40;;;27.40;1.00;;;;;;7361341;19;20074;-73
2022/07/14 06:43:35;;;;;;;5.40;2.20;;;28.70;1.00;;;;;;7362406;19;20014;-74
2022/07/14 06:46:07;;;;;;;5.15;2.42;;;27.70;1.00;;;;;;7357251;19;20081;-74
2022/07/14 06:48:37;;;;;;;6.22;2.90;;;26.80;1.00;;;;;;7363467;19;20098;-74
2022/07/14 06:51:06;;;;;;;6.70;2.83;;;26.90;1.00;;;;;;7362172;19;20007;-74
2022/07/14 06:53:40;;;;;;;9.80;2.83;;;27.20;1.00;;;;;;7382249;19;20048;-74
2022/07/14 06:56:10;;;;;;;5.22;2.42;;;27.00;1.00;;;;;;7356190;19;20022;-73
2022/07/14 06:58:40;;;;;;;7.50;2.17;;;27.20;1.00;;;;;;7362106;19;20639;-73
2022/07/14 07:01:10;;;;;;;5.53;2.30;;;26.90;1.00;;;;;;7360738;19;20017;-73
2022/07/14 07:03:41;;;;;;;4.43;2.40;;;27.40;1.00;;;;;;7357779;19;20022;-74
2022/07/14 07:08:55;;;;;;;4.03;2.50;;;27.60;1.00;;;;;;7360306;19;20015;-74
2022/07/14 07:11:26;;;;;;;5.15;2.33;;;27.60;1.00;;;;;;7382551;19;20034;-74
2022/07/14 07:13:57;;;;;;;8.82;2.78;;;27.90;1.00;;;;;;7360235;19;20017;-73
2022/07/14 07:16:27;;;;;;;5.13;2.80;;;27.90;1.00;;;;;;7354728;19;20371;-73
2022/07/14 07:18:57;;;;;;;4.50;2.10;;;27.30;1.00;;;;;;7359812;19;20018;-74
2022/07/14 07:21:27;;;;;;;7.10;2.45;;;27.60;1.00;;;;;;7361807;19;20448;-74
2022/07/14 07:23:59;;;;;;;8.23;5.32;;;27.30;1.00;;;;;;7358622;19;20015;-72
2022/07/14 07:26:34;;;;;;;8.07;2.85;;;27.10;1.00;;;;;;7376325;19;20014;-73
2022/07/14 07:29:04;;;;;;;9.70;2.67;;;26.90;1.00;;;;;;7360498;19;20014;-74
2022/07/14 07:31:35;;;;;;;6.20;2.42;;;26.60;1.00;;;;;;7359818;19;20102;-74
2022/07/14 07:34:05;;;;;;;8.60;2.70;;;26.80;1.00;;;;;;7358753;19;20021;-74
2022/07/14 07:36:35;;;;;;;7.50;2.35;;;27.10;1.00;;;;;;7353804;19;20022;-75
2022/07/14 07:39:24;;;;;;;6.38;2.50;;;27.50;1.00;;;;;;7360364;19;20763;-75
2022/07/14 07:41:57;;;;;;;6.88;3.05;;;27.60;1.00;;;;;;7359103;19;20063;-73
2022/07/14 07:44:27;;;;;;;4.32;2.53;;;27.50;1.00;;;;;;7374054;19;20084;-75
2022/07/14 07:46:57;;;;;;;8.63;2.75;;;27.70;1.00;;;;;;7355132;19;20040;-75
2022/07/14 07:49:28;;;;;;;4.65;2.47;;;28.10;1.00;;;;;;7357404;19;20478;-74
2022/07/14 07:52:01;;;;;;;5.65;2.35;;;28.10;1.00;;;;;;7357342;19;20427;-74
2022/07/14 07:54:33;;;;;;;3.78;2.55;;;28.40;1.00;;;;;;7356078;19;20158;-75
2022/07/14 07:57:23;;;;;;;4.03;2.17;;;28.90;1.00;;;;;;7355867;19;20014;-75
2022/07/14 07:59:53;;;;;;;5.03;2.38;;;29.20;1.00;;;;;;7358132;19;20074;-74
2022/07/14 08:02:24;;;;;;;6.20;2.50;;;29.10;1.00;;;;;;7379062;19;20200;-74
2022/07/14 08:04:55;;;;;;;2.90;2.28;;;28.90;1.00;;;;;;7355345;19;20026;-74
2022/07/14 08:07:25;;;;;;;10.20;2.53;;;28.60;1.00;;;;;;7355349;19;20021;-74
2022/07/14 08:09:57;;;;;;;5.50;1.98;;;29.00;1.00;;;;;;7358365;19;20394;-73
2022/07/14 08:12:28;;;;;;;8.23;2.45;;;29.00;1.00;;;;;;7359109;19;20152;-73
2022/07/14 08:14:58;;;;;;;7.80;2.30;;;29.10;1.00;;;;;;7352857;19;20082;-73
2022/07/14 08:17:28;;;;;;;8.07;2.67;;;28.90;1.00;;;;;;7383588;19;20455;-74
2022/07/14 08:19:58;;;;;;;6.60;2.38;;;28.90;1.00;;;;;;7367684;19;20022;-73
2022/07/14 08:22:29;;;;;;;8.38;2.03;;;29.10;1.00;;;;;;7364379;19;20028;-74
2022/07/14 08:25:02;;;;;;;7.15;2.33;;;28.90;1.00;;;;;;7362488;19;20114;-74
2022/07/14 08:27:40;;;;;;;4.80;2.45;;;28.80;1.00;;;;;;7361289;19;20015;-75
2022/07/14 08:30:11;;;;;;;5.18;1.90;;;29.10;1.00;;;;;;7364988;19;20071;-74
2022/07/14 08:32:44;;;;;;;9.25;2.00;;;29.20;1.00;;;;;;7386096;19;20046;-73
2022/07/14 08:35:17;;;;;;;4.78;1.77;;;29.40;1.00;;;;;;7361012;19;20010;-74
2022/07/14 08:37:47;;;;;;;4.38;1.88;;;29.60;1.00;;;;;;7362380;19;20630;-74
2022/07/14 08:40:21;;;;;;;6.43;2.20;;;29.80;1.00;;;;;;7366700;19;20013;-73
2022/07/14 08:42:53;;;;;;;4.55;2.00;;;30.10;1.00;;;;;;7367038;19;20025;-73
2022/07/14 08:45:25;;;;;;;3.63;2.03;;;30.20;1.00;;;;;;7361241;19;20093;-73
2022/07/14 08:47:56;;;;;;;6.53;2.17;;;30.20;1.00;;;;;;7362163;19;20023;-73
2022/07/14 08:50:27;;;;;;;5.88;2.53;;;30.20;1.00;;;;;;7386294;19;20347;-74
2022/07/14 08:52:58;;;;;;;3.22;1.65;;;30.20;1.00;;;;;;7365936;19;20029;-75
2022/07/14 08:55:34;;;;;;;5.37;2.20;;;30.30;1.00;;;;;;7360338;19;20011;-73
2022/07/14 08:58:04;;;;;;;8.88;2.00;;;30.50;1.00;;;;;;7362594;19;20327;-73
2022/07/14 09:00:34;;;;;;;4.78;2.00;;;30.00;1.00;;;;;;7366875;19;20014;-73
2022/07/14 09:03:05;;;;;;;7.63;2.00;;;29.90;1.00;;;;;;7364469;19;20021;-72
2022/07/14 09:05:55;;;;;;;6.93;1.80;;;30.10;1.00;;;;;;7358577;19;20018;-73
2022/07/14 09:08:29;;;;;;;5.80;1.42;;;30.10;1.00;;;;;;7388618;19;20031;-74
2022/07/14 09:11:19;;;;;;;5.10;1.58;;;30.10;1.00;;;;;;7363488;19;20521;-73
2022/07/14 09:13:49;;;;;;;2.47;1.48;;;30.20;1.00;;;;;;7363850;19;20025;-74
2022/07/14 09:16:22;;;;;;;1.50;1.40;;;30.80;1.00;;;;;;7359027;19;20086;-73
2022/07/14 09:19:07;;;;;;;3.65;1.15;;;30.70;1.00;;;;;;7364609;19;20026;-73
2022/07/14 09:21:38;;;;;;;;;;;30.40;1.00;;;;;;7364139;19;20010;-73
2022/07/14 09:24:09;;;;;;;2.65;1.60;;;30.90;1.00;;;;;;7363323;19;19923;-74
2022/07/14 09:26:48;;;;;;;4.78;1.40;;;30.90;1.00;;;;;;7378931;19;20014;-73
2022/07/14 09:29:24;;;;;;;4.53;3.08;;;30.80;1.00;;;;;;7363978;19;20014;-74
2022/07/14 09:31:55;;;;;;;5.13;1.60;;;30.50;1.00;;;;;;7363482;19;20027;-73
2022/07/14 09:34:31;;;;;;;4.75;1.80;;;30.70;1.00;;;;;;7358800;19;20010;-74
2022/07/14 09:37:15;;;;;;;4.95;1.50;;;30.90;1.00;;;;;;7360876;19;20474;-74
2022/07/14 09:39:55;;;;;;;2.53;0.93;;;30.90;1.00;;;;;;7365368;19;20037;-73
2022/07/14 09:42:50;;;;;;;1.92;1.10;;;30.60;1.00;;;;;;7363989;19;20018;-73
2022/07/14 09:45:20;;;;;;;;;;;30.70;1.00;;;;;;7361669;19;20486;-75
2022/07/14 09:48:04;;;;;;;5.28;1.40;;;30.90;1.00;;;;;;7359348;19;19998;-74
2022/07/14 09:50:41;;;;;;;2.88;1.50;;;30.90;1.00;;;;;;7385135;19;20471;-73
2022/07/14 09:53:24;;;;;;;2.15;1.20;;;31.00;1.00;;;;;;7363326;19;20027;-73
2022/07/14 09:56:00;;;;;;;3.50;1.42;;;31.30;1.00;;;;;;7356406;19;20010;-73
2022/07/14 09:58:34;;;;;;;2.40;1.48;;;31.60;1.00;;;;;;7363271;19;20006;-72
2022/07/14 10:01:10;;;;;;;3.38;1.10;;;31.70;1.00;;;;;;7362927;19;20014;-72
2022/07/14 10:03:42;;;;;;;1.65;1.10;;;31.20;1.00;;;;;;7361482;19;20130;-72
2022/07/14 10:06:14;;;;;;;5.10;1.10;;;31.30;1.00;;;;;;7356390;19;20101;-74
2022/07/14 10:09:05;;;;;;;1.63;0.98;;;31.30;1.00;;;;;;7362580;19;20018;-73
2022/07/14 10:11:36;;;;;;;2.90;1.15;;;31.70;1.00;;;;;;7381950;19;20013;-74
2022/07/14 10:14:10;;;;;;;3.63;1.00;;;31.90;1.00;;;;;;7359484;19;20500;-73
2022/07/14 10:16:41;;;;;;;3.60;1.35;;;31.70;1.00;;;;;;7358529;19;20073;-73
2022/07/14 10:19:11;;;;;;;4.90;1.42;;;31.60;1.00;;;;;;7362355;19;20038;-73
2022/07/14 10:21:45;;;;;;;2.55;1.10;;;31.60;1.00;;;;;;7363329;19;20181;-73
2022/07/14 10:24:17;;;;;;;9.05;1.65;;;31.90;1.00;;;;;;7359524;19;20067;-73
2022/07/14 10:26:48;;;;;;;3.80;1.10;;;32.10;1.00;;;;;;7367607;19;20014;-74
2022/07/14 10:29:21;;;;;;;2.20;1.23;;;32.00;1.00;;;;;;7385989;19;20014;-74
2022/07/14 10:32:07;;;;;;;2.77;1.27;;;32.20;1.00;;;;;;7360026;19;20007;-74
2022/07/14 10:34:44;;;;;;;3.10;1.60;;;32.10;1.00;;;;;;7357352;19;20231;-73
2022/07/14 10:37:22;;;;;;;7.72;1.85;;;32.30;1.00;;;;;;7359148;19;20617;-74
2022/07/14 10:40:04;;;;;;;3.47;1.33;;;32.60;1.00;;;;;;7363285;19;20060;-74
2022/07/14 10:42:44;;;;;;;3.03;1.45;;;32.30;1.00;;;;;;7362124;19;20078;-73
2022/07/14 10:45:17;;;;;;;1.60;1.10;;;32.20;1.00;;;;;;7357994;19;20074;-74
2022/07/14 10:48:10;;;;;;;3.20;1.13;;;32.50;1.00;;;;;;7371855;19;20022;-76
2022/07/14 10:50:48;;;;;;;4.55;1.35;;;32.40;1.00;;;;;;7364461;19;20020;-72
2022/07/14 10:53:18;;;;;;;4.00;1.35;;;32.30;1.00;;;;;;7384426;19;20017;-73
2022/07/14 10:55:50;;;;;;;9.45;1.70;;;32.80;1.00;;;;;;7356218;19;20098;-73
2022/07/14 10:58:32;;;;;;;2.58;1.10;;;32.60;1.00;;;;;;7359927;19;20089;-73
2022/07/14 11:01:09;;;;;;;4.05;1.55;;;32.60;1.00;;;;;;7362400;19;20126;-73
2022/07/14 11:03:54;;;;;;;5.03;2.08;;;32.60;1.00;;;;;;7360972;19;20010;-75
2022/07/14 11:06:25;;;;;;;4.32;1.27;;;33.00;1.00;;;;;;7356572;19;20298;-72
2022/07/14 11:09:40;;;;;;;5.43;1.30;;;33.10;1.00;;;;;;7359917;19;20048;-72
2022/07/14 11:12:18;;;;;;;9.55;1.23;;;33.10;1.00;;;;;;7356945;19;20011;-74
2022/07/14 11:14:48;;;;;;;2.88;1.10;;;32.50;1.00;;;;;;7359359;19;20085;-73
2022/07/14 11:17:40;;;;;;;2.53;1.40;;;33.00;1.00;;;;;;7378365;19;20022;-73
2022/07/14 11:20:13;;;;;;;5.25;1.30;;;32.90;1.00;;;;;;7360531;19;20019;-74
2022/07/14 11:22:44;;;;;;;4.63;1.60;;;32.90;1.00;;;;;;7359446;19;20579;-74
2022/07/14 11:25:30;;;;;;;2.65;1.30;;;32.50;1.00;;;;;;7356480;19;20017;-72
2022/07/14 11:28:03;;;;;;;4.25;1.77;;;32.70;1.00;;;;;;7356028;19;20027;-72
2022/07/14 11:30:35;;;;;;;2.90;1.90;;;32.60;1.00;;;;;;7361178;19;20006;-73
2022/07/14 11:33:11;;;;;;;5.18;1.50;;;32.70;1.00;;;;;;7359036;19;20482;-72
2022/07/14 11:38:38;;;;;;;3.75;1.60;;;32.60;1.00;;;;;;7358830;19;20025;-72
2022/07/14 11:41:10;;;;;;;4.00;1.63;;;32.60;1.00;;;;;;7360509;19;20007;-72
2022/07/14 11:43:45;;;;;;;2.15;1.48;;;32.60;1.00;;;;;;7359297;19;20381;-71
2022/07/14 11:46:22;;;;;;;3.22;1.40;;;32.80;1.00;;;;;;7353660;19;20011;-72
2022/07/14 11:48:56;;;;;;;7.35;1.63;;;32.40;1.00;;;;;;7360946;19;20102;-71
2022/07/14 11:51:29;;;;;;;16.30;1.73;;;32.30;1.00;;;;;;7372079;19;20105;-72
2022/07/14 11:54:01;;;;;;;3.03;1.73;;;32.30;1.00;;;;;;7373266;19;20090;-73
2022/07/14 11:56:35;;;;;;;4.22;1.70;;;32.00;1.00;;;;;;7385723;19;20793;-72
2022/07/14 11:59:07;;;;;;;5.75;1.60;;;32.50;1.00;;;;;;7373335;19;20078;-72
2022/07/14 12:01:38;;;;;;;3.70;1.70;;;32.50;1.00;;;;;;7373313;19;20021;-71
2022/07/14 12:04:14;;;;;;;10.55;1.85;;;32.60;1.00;;;;;;7371394;19;20017;-70
2022/07/14 12:06:47;;;;;;;3.83;1.83;;;33.20;1.00;;;;;;7370568;19;20027;-70
2022/07/14 12:09:30;;;;;;;4.90;1.65;;;32.90;1.00;;;;;;7374202;19;20014;-71
2022/07/14 12:12:10;;;;;;;4.28;1.20;;;33.10;1.00;;;;;;7372559;19;20010;-69
2022/07/14 12:14:46;;;;;;;7.05;1.88;;;31.90;1.00;;;;;;7392750;19;20026;-73
2022/07/14 12:17:17;;;;;;;5.53;1.73;;;32.20;1.00;;;;;;7369696;19;20011;-70
2022/07/14 12:19:50;;;;;;;6.80;1.63;;;32.60;1.00;;;;;;7374097;19;20016;-72
2022/07/14 12:22:20;;;;;;;5.60;1.20;;;32.70;1.00;;;;;;7372359;19;20010;-71
2022/07/14 12:24:50;;;;;;;3.63;1.40;;;32.60;1.00;;;;;;7369443;19;20007;-71
2022/07/14 12:27:21;;;;;;;4.35;1.38;;;32.30;1.00;;;;;;7368082;19;20010;-71
2022/07/14 12:29:53;;;;;;;11.10;1.75;;;32.80;1.00;;;;;;7372602;19;20018;-72
2022/07/14 12:32:27;;;;;;;4.38;1.48;;;32.60;1.00;;;;;;7393804;19;20010;-70
2022/07/14 12:35:00;;;;;;;8.07;1.60;;;32.20;1.00;;;;;;7368286;19;20006;-70
2022/07/14 12:37:30;;;;;;;6.78;1.80;;;32.00;1.00;;;;;;7370354;19;20014;-71
2022/07/14 12:40:21;;;;;;;8.50;1.50;;;32.20;1.00;;;;;;7372302;19;20007;-71
2022/07/14 12:42:51;;;;;;;1.92;1.50;;;32.40;1.00;;;;;;7372748;19;20006;-74
2022/07/14 12:45:21;;;;;;;3.70;1.40;;;32.30;1.00;;;;;;7368547;19;20019;-74
2022/07/14 12:47:51;;;;;;;5.68;1.45;;;32.50;1.00;;;;;;7369675;19;20018;-71
2022/07/14 12:50:25;;;;;;;19.88;1.90;;;32.30;1.00;;;;;;7394926;19;20486;-69
2022/07/14 12:52:57;;;;;;;5.30;1.50;;;31.90;1.00;;;;;;7370439;19;20006;-70
2022/07/14 12:55:36;;;;;;;5.13;1.30;;;32.00;1.00;;;;;;7366936;19;20017;-71
2022/07/14 12:58:07;;;;;;;14.48;2.00;;;31.60;1.00;;;;;;7369345;19;20098;-70
2022/07/14 13:00:39;;;;;;;10.27;1.60;;;31.90;1.00;;;;;;7371920;19;20352;-70
2022/07/14 13:03:13;;;;;;;7.45;1.65;;;32.00;1.00;;;;;;7364193;19;20233;-69
2022/07/14 13:05:54;;;;;;;5.75;1.38;;;31.80;1.00;;;;;;7380427;19;20348;-70
2022/07/14 13:08:37;;;;;;;9.30;1.65;;;32.30;1.00;;;;;;7361161;19;20350;-68
2022/07/14 13:11:11;;;;;;;4.87;1.63;;;32.60;1.00;;;;;;7363288;19;20060;-69
2022/07/14 13:13:42;;;;;;;3.42;1.50;;;32.40;1.00;;;;;;7360964;19;20057;-70
2022/07/14 13:16:20;;;;;;;2.70;1.45;;;32.10;1.00;;;;;;7360349;19;20023;-71
2022/07/14 13:19:11;;;;;;;4.10;1.63;;;32.70;1.00;;;;;;7364275;19;20014;-71
2022/07/14 13:22:15;;;;;;;3.67;1.30;;;32.60;1.00;;;;;;7364142;19;20020;-71
2022/07/14 13:24:47;;;;;;;5.93;1.77;;;32.50;1.00;;;;;;7357942;19;20030;-70
2022/07/14 13:27:18;;;;;;;8.20;1.60;;;32.10;1.00;;;;;;7359104;19;20015;-69
2022/07/14 13:29:51;;;;;;;5.47;1.35;;;31.90;1.00;;;;;;7362969;19;20018;-71
2022/07/14 13:32:29;;;;;;;2.45;1.30;;;32.30;1.00;;;;;;7384184;19;20014;-69
2022/07/14 13:34:59;;;;;;;1.77;1.38;;;32.90;1.00;;;;;;7359311;19;20049;-69
2022/07/14 13:37:32;;;;;;;3.17;1.40;;;33.00;1.00;;;;;;7360953;19;20078;-69
2022/07/14 13:40:02;;;;;;;6.25;1.20;;;32.80;1.00;;;;;;7364673;19;20017;-70